createdAt,value
2019-02-09T00:00:31.971Z,99.90
2019-02-09T00:03:03.782Z,99.90
2019-02-09T00:05:34.506Z,99.90
2019-02-09T00:08:06.866Z,99.90
2019-02-09T00:10:38.186Z,99.90
2019-02-09T00:13:11.756Z,99.90
2019-02-09T00:15:42.309Z,99.90
2019-02-09T00:18:13.840Z,99.90
2019-02-09T00:20:44.767Z,99.90
2019-02-09T00:23:15.909Z,99.90
2019-02-09T00:25:46.218Z,99.90
2019-02-09T00:28:17.833Z,99.90
2019-02-09T00:30:48.940Z,99.90
2019-02-09T00:33:19.466Z,99.90
2019-02-09T00:35:50.113Z,99.90
2019-02-09T00:38:20.991Z,99.90
2019-02-09T00:40:51.695Z,99.90
2019-02-09T00:43:22.520Z,99.90
2019-02-09T00:45:53.160Z,99.90
2019-02-09T00:48:23.557Z,99.90
2019-02-09T00:50:55.107Z,99.90
2019-02-09T00:53:25.602Z,99.90
2019-02-09T00:55:57.102Z,99.90
2019-02-09T00:58:27.862Z,99.90
2019-02-09T01:00:58.500Z,99.90
2019-02-09T01:03:29.241Z,99.90
2019-02-09T01:06:00.122Z,99.90
2019-02-09T01:08:30.806Z,99.90
2019-02-09T01:11:01.856Z,99.90
2019-02-09T01:13:33.094Z,99.90
2019-02-09T01:16:04.039Z,99.90
2019-02-09T01:18:35.020Z,99.90
2019-02-09T01:21:07.902Z,99.90
2019-02-09T01:23:38.555Z,99.90
2019-02-09T01:26:09.384Z,99.90
2019-02-09T01:28:39.825Z,99.90
2019-02-09T01:31:58.636Z,99.90
2019-02-09T01:34:26.989Z,99.90
2019-02-09T01:36:58.343Z,99.90
2019-02-09T01:39:29.075Z,99.90
2019-02-09T01:42:00.185Z,99.90
2019-02-09T01:44:31.821Z,99.90
2019-02-09T01:47:02.392Z,99.90
2019-02-09T01:49:33.262Z,99.90
2019-02-09T01:52:04.440Z,99.90
2019-02-09T01:54:35.101Z,99.90
2019-02-09T01:57:06.221Z,99.90
2019-02-09T01:59:37.387Z,99.90
2019-02-09T02:02:08.866Z,99.90
2019-02-09T02:04:40.462Z,99.90
2019-02-09T02:07:12.060Z,99.90
2019-02-09T02:09:43.901Z,99.90
2019-02-09T02:12:15.104Z,99.90
2019-02-09T02:14:46.101Z,99.90
2019-02-09T02:17:17.351Z,99.90
2019-02-09T02:19:48.341Z,99.90
2019-02-09T02:22:19.259Z,99.90
2019-02-09T02:24:50.581Z,99.90
2019-02-09T02:27:21.507Z,99.90
2019-02-09T02:29:53.002Z,99.90
2019-02-09T02:32:24.358Z,99.90
2019-02-09T02:34:55.436Z,99.90
2019-02-09T02:37:26.247Z,99.90
2019-02-09T02:39:56.848Z,99.90
2019-02-09T02:42:27.502Z,99.90
2019-02-09T02:44:58.421Z,99.90
2019-02-09T02:47:29.197Z,99.90
2019-02-09T02:50:00.192Z,99.90
2019-02-09T02:52:31.301Z,99.90
2019-02-09T02:55:02.961Z,99.90
2019-02-09T02:57:34.964Z,99.90
2019-02-09T03:00:09.261Z,99.90
2019-02-09T03:02:39.990Z,99.90
2019-02-09T03:05:14.042Z,99.90
2019-02-09T03:07:44.942Z,99.90
2019-02-09T03:10:16.703Z,99.90
2019-02-09T03:12:47.863Z,99.90
2019-02-09T03:15:21.070Z,99.90
2019-02-09T03:17:52.303Z,99.90
2019-02-09T03:20:23.221Z,99.90
2019-02-09T03:22:54.452Z,99.90
2019-02-09T03:25:27.533Z,99.90
2019-02-09T03:27:58.785Z,99.90
2019-02-09T03:30:29.623Z,99.90
2019-02-09T03:33:01.092Z,99.90
2019-02-09T03:35:31.652Z,99.90
2019-02-09T03:38:02.160Z,99.90
2019-02-09T03:40:33.345Z,99.90
2019-02-09T03:43:04.882Z,99.90
2019-02-09T03:45:36.542Z,99.90
2019-02-09T03:48:07.870Z,99.90
2019-02-09T03:50:38.421Z,99.90
2019-02-09T03:53:09.192Z,99.90
2019-02-09T03:55:40.444Z,99.90
2019-02-09T03:58:11.718Z,99.90
2019-02-09T04:00:43.001Z,99.90
2019-02-09T04:03:13.671Z,99.90
2019-02-09T04:05:44.381Z,99.90
2019-02-09T04:08:15.701Z,99.90
2019-02-09T04:10:46.503Z,99.90
2019-02-09T04:13:17.547Z,99.90
2019-02-09T04:15:48.662Z,99.90
2019-02-09T04:18:20.417Z,99.90
2019-02-09T04:20:51.901Z,99.90
2019-02-09T04:23:23.182Z,99.90
2019-02-09T04:25:54.628Z,99.90
2019-02-09T04:28:25.832Z,99.90
2019-02-09T04:31:05.573Z,99.90
2019-02-09T04:33:29.142Z,99.90
2019-02-09T04:36:04.163Z,99.90
2019-02-09T04:38:34.599Z,99.90
2019-02-09T04:41:05.357Z,99.90
2019-02-09T04:43:36.229Z,99.90
2019-02-09T04:46:06.990Z,99.90
2019-02-09T04:48:37.405Z,99.90
2019-02-09T04:51:07.686Z,99.90
2019-02-09T04:53:38.429Z,99.90
2019-02-09T04:56:08.976Z,99.90
2019-02-09T04:58:39.555Z,99.90
2019-02-09T05:01:13.988Z,99.90
2019-02-09T05:03:41.856Z,99.90
2019-02-09T05:06:12.146Z,99.90
2019-02-09T05:08:42.496Z,99.90
2019-02-09T05:11:12.945Z,99.90
2019-02-09T05:13:43.401Z,99.90
2019-02-09T05:16:15.869Z,99.90
2019-02-09T05:18:46.356Z,99.90
2019-02-09T05:21:16.855Z,99.90
2019-02-09T05:23:47.269Z,99.90
2019-02-09T05:26:17.786Z,99.90
2019-02-09T05:28:48.024Z,99.90
2019-02-09T05:31:23.105Z,99.90
2019-02-09T05:33:51.621Z,99.90
2019-02-09T05:36:21.984Z,99.90
2019-02-09T05:38:53.082Z,99.90
2019-02-09T05:41:24.022Z,99.90
2019-02-09T05:44:00.704Z,99.90
2019-02-09T05:46:32.771Z,99.90
2019-02-09T05:49:03.716Z,99.90
2019-02-09T05:51:34.328Z,99.90
2019-02-09T05:54:04.724Z,99.90
2019-02-09T05:56:37.253Z,99.90
2019-02-09T05:59:07.578Z,99.90
2019-02-09T06:01:37.826Z,99.90
2019-02-09T06:04:08.265Z,99.90
2019-02-09T06:06:38.785Z,99.90
2019-02-09T06:09:09.939Z,99.90
2019-02-09T06:11:40.417Z,99.90
2019-02-09T06:14:10.990Z,99.90
2019-02-09T06:16:41.445Z,99.90
2019-02-09T06:19:11.728Z,99.90
2019-02-09T06:21:42.182Z,99.90
2019-02-09T06:24:12.813Z,99.90
2019-02-09T06:26:43.140Z,99.90
2019-02-09T06:29:13.380Z,99.90
2019-02-09T06:31:43.759Z,99.90
2019-02-09T06:34:33.684Z,99.90
2019-02-09T06:37:04.019Z,99.90
2019-02-09T06:39:35.662Z,99.90
2019-02-09T06:42:05.969Z,99.90
2019-02-09T06:44:36.467Z,99.90
2019-02-09T06:47:06.931Z,99.90
2019-02-09T06:49:37.378Z,99.90
2019-02-09T06:52:09.125Z,99.90
2019-02-09T06:54:39.609Z,99.90
2019-02-09T06:57:10.598Z,99.90
2019-02-09T06:59:51.266Z,99.90
2019-02-09T07:02:22.200Z,99.90
2019-02-09T07:04:52.660Z,99.90
2019-02-09T07:07:23.170Z,99.90
2019-02-09T07:09:53.451Z,99.90
2019-02-09T07:12:23.907Z,99.90
2019-02-09T07:14:54.188Z,99.90
2019-02-09T07:17:24.641Z,99.90
2019-02-09T07:19:55.054Z,99.90
2019-02-09T07:22:25.386Z,99.90
2019-02-09T07:24:55.830Z,99.90
2019-02-09T07:27:26.211Z,99.90
2019-02-09T07:29:56.787Z,99.90
2019-02-09T07:32:27.307Z,99.90
2019-02-09T07:34:57.686Z,99.90
2019-02-09T07:37:28.218Z,99.90
2019-02-09T07:39:59.161Z,99.90
2019-02-09T07:42:29.450Z,99.90
2019-02-09T07:44:59.895Z,99.90
2019-02-09T07:47:30.264Z,99.90
2019-02-09T07:50:01.106Z,99.90
2019-02-09T07:52:31.893Z,99.90
2019-02-09T07:55:02.352Z,99.90
2019-02-09T07:57:33.545Z,99.90
2019-02-09T08:00:07.049Z,99.90
2019-02-09T08:02:56.599Z,99.90
2019-02-09T08:05:28.997Z,99.90
2019-02-09T08:08:01.991Z,99.90
2019-02-09T08:10:33.454Z,99.90
2019-02-09T08:13:04.920Z,99.90
2019-02-09T08:15:35.670Z,99.90
2019-02-09T08:18:06.644Z,99.90
2019-02-09T08:20:39.033Z,99.90
2019-02-09T08:23:10.743Z,99.90
2019-02-09T08:25:42.029Z,99.90
2019-02-09T08:28:12.939Z,99.90
2019-02-09T08:30:46.496Z,99.90
2019-02-09T08:33:17.194Z,99.90
2019-02-09T08:35:47.721Z,99.90
2019-02-09T08:38:18.279Z,99.90
2019-02-09T08:40:48.831Z,99.90
2019-02-09T08:43:19.392Z,99.90
2019-02-09T08:45:50.608Z,99.90
2019-02-09T08:48:21.750Z,99.90
2019-02-09T08:50:59.531Z,99.90
2019-02-09T08:53:30.251Z,99.90
2019-02-09T08:56:00.821Z,99.90
2019-02-09T08:58:31.327Z,99.90
2019-02-09T09:01:01.767Z,99.90
2019-02-09T09:03:31.861Z,99.90
2019-02-09T09:06:02.098Z,99.90
2019-02-09T09:08:32.408Z,99.90
2019-02-09T09:11:02.784Z,99.90
2019-02-09T09:13:33.011Z,99.90
2019-02-09T09:16:06.856Z,99.90
2019-02-09T09:18:37.194Z,99.90
2019-02-09T09:21:07.626Z,99.90
2019-02-09T09:23:37.904Z,99.90
2019-02-09T09:26:08.572Z,99.90
2019-02-09T09:28:38.945Z,99.90
2019-02-09T09:31:09.245Z,99.90
2019-02-09T09:33:39.973Z,99.90
2019-02-09T09:36:10.394Z,99.90
2019-02-09T09:38:40.720Z,99.90
2019-02-09T09:41:11.090Z,99.90
2019-02-09T09:43:41.328Z,99.90
2019-02-09T09:46:12.091Z,99.90
2019-02-09T09:48:42.368Z,99.90
2019-02-09T09:51:12.651Z,99.90
2019-02-09T09:53:42.971Z,99.90
2019-02-09T09:56:14.345Z,99.90
2019-02-09T09:58:44.643Z,99.90
2019-02-09T10:01:15.270Z,99.90
2019-02-09T10:03:45.552Z,99.90
2019-02-09T10:06:16.020Z,99.90
2019-02-09T10:08:46.139Z,99.90
2019-02-09T10:11:16.394Z,99.90
2019-02-09T10:13:47.077Z,99.90
2019-02-09T10:16:17.818Z,99.90
2019-02-09T10:18:48.164Z,99.90
2019-02-09T10:21:18.618Z,99.90
2019-02-09T10:23:48.883Z,99.90
2019-02-09T10:26:19.887Z,99.90
2019-02-09T10:28:52.355Z,99.90
2019-02-09T10:31:23.422Z,99.90
2019-02-09T10:34:02.423Z,99.90
2019-02-09T10:36:32.663Z,99.90
2019-02-09T10:39:03.220Z,99.90
2019-02-09T10:41:33.513Z,99.90
2019-02-09T10:44:03.822Z,99.90
2019-02-09T10:46:34.101Z,99.90
2019-02-09T10:49:04.928Z,99.90
2019-02-09T10:51:37.138Z,99.90
2019-02-09T10:54:08.205Z,99.90
2019-02-09T10:56:38.510Z,99.90
2019-02-09T10:59:08.890Z,99.90
2019-02-09T11:01:41.105Z,99.90
2019-02-09T11:04:11.352Z,99.90
2019-02-09T11:06:42.626Z,99.90
2019-02-09T11:09:22.723Z,99.90
2019-02-09T11:11:53.327Z,99.90
2019-02-09T11:14:23.706Z,99.90
2019-02-09T11:16:59.013Z,99.90
2019-02-09T11:19:30.130Z,99.90
2019-02-09T11:22:01.611Z,99.90
2019-02-09T11:25:26.005Z,99.90
2019-02-09T11:28:34.198Z,99.90
2019-02-09T11:31:04.722Z,99.90
2019-02-09T11:33:34.996Z,99.90
2019-02-09T11:36:05.652Z,99.90
2019-02-09T11:38:35.990Z,99.90
2019-02-09T11:41:07.186Z,99.90
2019-02-09T11:43:37.618Z,99.90
2019-02-09T11:46:11.113Z,99.90
2019-02-09T11:48:43.262Z,99.90
2019-02-09T11:51:14.652Z,99.90
2019-02-09T11:53:46.430Z,99.90
2019-02-09T11:56:16.850Z,99.90
2019-02-09T11:58:47.688Z,99.90
2019-02-09T12:01:18.223Z,99.90
2019-02-09T12:03:48.684Z,96.20
2019-02-09T12:06:19.035Z,92.20
2019-02-09T12:08:49.294Z,91.50
2019-02-09T12:11:20.874Z,91.70
2019-02-09T12:13:55.362Z,90.90
2019-02-09T12:16:23.101Z,90.30
2019-02-09T12:18:53.418Z,88.80
2019-02-09T12:21:23.894Z,87.70
2019-02-09T12:23:54.972Z,84.00
2019-02-09T12:26:27.166Z,83.60
2019-02-09T12:28:57.668Z,84.70
2019-02-09T12:31:28.000Z,83.70
2019-02-09T12:33:58.188Z,81.00
2019-02-09T12:36:28.596Z,82.80
2019-02-09T12:39:01.060Z,84.30
2019-02-09T12:41:31.944Z,84.50
2019-02-09T12:44:02.838Z,85.90
2019-02-09T12:46:33.657Z,84.10
2019-02-09T12:49:04.014Z,80.30
2019-02-09T12:51:34.382Z,82.00
2019-02-09T12:54:06.930Z,79.00
2019-02-09T12:56:37.645Z,80.00
2019-02-09T12:59:14.792Z,78.50
2019-02-09T13:01:40.204Z,80.30
2019-02-09T13:04:11.546Z,85.10
2019-02-09T13:06:44.763Z,90.40
2019-02-09T13:09:15.506Z,90.50
2019-02-09T13:11:46.740Z,95.10
2019-02-09T13:14:17.599Z,99.90
2019-02-09T13:16:48.148Z,99.90
2019-02-09T13:19:23.117Z,99.90
2019-02-09T13:21:54.477Z,99.90
2019-02-09T13:24:25.700Z,99.90
2019-02-09T13:26:57.513Z,99.90
2019-02-09T13:29:34.804Z,99.90
2019-02-09T13:32:07.652Z,99.90
2019-02-09T13:34:39.304Z,99.90
2019-02-09T13:37:12.103Z,99.90
2019-02-09T13:39:44.057Z,99.90
2019-02-09T13:42:17.349Z,99.90
2019-02-09T13:44:49.543Z,99.90
2019-02-09T13:47:21.283Z,99.90
2019-02-09T13:49:52.305Z,99.90
2019-02-09T13:52:23.589Z,99.90
2019-02-09T13:54:54.904Z,99.90
2019-02-09T13:57:25.493Z,99.90
2019-02-09T13:59:55.856Z,99.90
2019-02-09T14:02:28.045Z,99.90
2019-02-09T14:05:00.848Z,99.90
2019-02-09T14:07:31.949Z,99.90
2019-02-09T14:10:02.416Z,99.90
2019-02-09T14:12:33.249Z,99.90
2019-02-09T14:15:06.011Z,99.90
2019-02-09T14:17:36.969Z,99.90
2019-02-09T14:20:09.962Z,99.90
2019-02-09T14:22:40.992Z,99.90
2019-02-09T14:25:11.688Z,99.90
2019-02-09T14:27:42.379Z,99.90
2019-02-09T14:30:18.822Z,99.90
2019-02-09T14:32:54.725Z,99.90
2019-02-09T14:35:26.569Z,99.90
2019-02-09T14:37:59.650Z,99.90
2019-02-09T14:40:33.612Z,99.90
2019-02-09T14:43:06.041Z,99.90
2019-02-09T14:45:39.323Z,99.90
2019-02-09T14:48:11.486Z,99.90
2019-02-09T14:50:43.462Z,99.90
2019-02-09T14:53:15.308Z,99.90
2019-02-09T14:55:47.073Z,99.90
2019-02-09T14:58:19.015Z,99.90
2019-02-09T15:00:52.583Z,99.90
2019-02-09T15:03:27.010Z,99.90
2019-02-09T15:05:57.982Z,99.90
2019-02-09T15:08:43.854Z,99.90
2019-02-09T15:11:15.995Z,99.90
2019-02-09T15:13:48.186Z,99.90
2019-02-09T15:16:43.693Z,99.90
2019-02-09T15:19:16.553Z,99.90
2019-02-09T15:21:48.508Z,99.90
2019-02-09T15:24:20.067Z,99.90
2019-02-09T15:26:51.655Z,99.90
2019-02-09T15:29:23.263Z,99.90
2019-02-09T15:31:55.067Z,99.90
2019-02-09T15:34:26.700Z,99.90
2019-02-09T15:36:57.887Z,99.90
2019-02-09T15:39:29.382Z,99.90
2019-02-09T15:42:02.942Z,99.90
2019-02-09T15:44:35.329Z,99.90
2019-02-09T15:47:07.361Z,99.90
2019-02-09T15:49:39.303Z,99.90
2019-02-09T15:52:11.059Z,99.90
2019-02-09T15:54:42.782Z,99.90
2019-02-09T15:57:14.559Z,99.90
2019-02-09T15:59:46.921Z,99.90
2019-02-09T16:02:19.183Z,99.90
2019-02-09T16:04:50.226Z,99.90
2019-02-09T16:07:22.062Z,99.90
2019-02-09T16:09:53.302Z,99.90
2019-02-09T16:12:24.623Z,99.90
2019-02-09T16:14:56.312Z,99.90
2019-02-09T16:17:28.184Z,99.90
2019-02-09T16:19:59.833Z,99.90
2019-02-09T16:22:31.951Z,99.90
2019-02-09T16:25:04.232Z,99.90
2019-02-09T16:27:36.592Z,99.90
2019-02-09T16:30:10.664Z,99.90
2019-02-09T16:32:42.784Z,99.90
2019-02-09T16:35:16.041Z,99.90
2019-02-09T16:37:47.366Z,99.90
2019-02-09T16:40:20.221Z,99.90
2019-02-09T16:42:52.685Z,99.90
2019-02-09T16:45:25.951Z,99.90
2019-02-09T16:47:57.456Z,99.90
2019-02-09T16:50:31.756Z,99.90
2019-02-09T16:53:03.513Z,99.90
2019-02-09T16:55:35.308Z,99.90
2019-02-09T16:58:07.849Z,99.90
2019-02-09T17:00:42.069Z,99.90
2019-02-09T17:03:14.538Z,99.90
2019-02-09T17:05:45.803Z,99.90
2019-02-09T17:08:17.947Z,99.90
2019-02-09T17:10:49.743Z,99.90
2019-02-09T17:13:21.743Z,99.90
2019-02-09T17:15:53.344Z,99.90
2019-02-09T17:18:26.492Z,99.90
2019-02-09T17:20:58.303Z,99.90
2019-02-09T17:23:30.055Z,99.90
2019-02-09T17:26:01.812Z,99.90
2019-02-09T17:28:32.978Z,99.90
2019-02-09T17:31:04.537Z,99.90
2019-02-09T17:33:36.952Z,99.90
2019-02-09T17:36:08.627Z,99.90
2019-02-09T17:38:40.360Z,99.90
2019-02-09T17:41:12.888Z,99.90
2019-02-09T17:43:45.628Z,99.90
2019-02-09T17:46:19.008Z,99.90
2019-02-09T17:48:50.366Z,99.90
2019-02-09T17:51:24.294Z,99.90
2019-02-09T17:53:56.432Z,99.90
2019-02-09T17:56:29.104Z,99.90
2019-02-09T17:59:00.243Z,99.90
2019-02-09T18:01:34.664Z,99.90
2019-02-09T18:04:07.035Z,99.90
2019-02-09T18:06:39.150Z,99.90
2019-02-09T18:09:11.342Z,99.90
2019-02-09T18:11:42.744Z,99.90
2019-02-09T18:14:13.824Z,99.90
2019-02-09T18:16:45.586Z,99.90
2019-02-09T18:19:17.310Z,99.90
2019-02-09T18:21:49.269Z,99.90
2019-02-09T18:24:23.192Z,99.90
2019-02-09T18:26:54.753Z,99.90
2019-02-09T18:29:25.868Z,99.90
2019-02-09T18:31:57.642Z,99.90
2019-02-09T18:34:29.742Z,99.90
2019-02-09T18:37:01.089Z,99.90
2019-02-09T18:39:33.013Z,99.90
2019-02-09T18:42:04.663Z,99.90
2019-02-09T18:44:36.363Z,99.90
2019-02-09T18:47:08.077Z,99.90
2019-02-09T18:49:40.233Z,99.90
2019-02-09T18:52:12.031Z,99.90
2019-02-09T18:54:44.739Z,99.90
2019-02-09T18:57:16.638Z,99.90
2019-02-09T18:59:48.505Z,99.90
2019-02-09T19:02:20.205Z,99.90
2019-02-09T19:04:52.347Z,99.90
2019-02-09T19:07:24.655Z,99.90
2019-02-09T19:10:08.277Z,99.90
2019-02-09T19:12:40.379Z,99.90
2019-02-09T19:15:12.672Z,99.90
2019-02-09T19:17:44.989Z,99.90
2019-02-09T19:20:48.785Z,99.90
2019-02-09T19:23:20.544Z,99.90
2019-02-09T19:25:52.690Z,99.90
2019-02-09T19:28:24.807Z,99.90
2019-02-09T19:30:56.982Z,99.90
2019-02-09T19:33:28.467Z,99.90
2019-02-09T19:35:59.451Z,99.90
2019-02-09T19:38:31.085Z,99.90
2019-02-09T19:41:02.012Z,99.90
2019-02-09T19:43:32.864Z,99.90
2019-02-09T19:46:05.106Z,99.90
2019-02-09T19:48:37.491Z,99.90
2019-02-09T19:51:08.526Z,99.90
2019-02-09T19:53:44.383Z,99.90
2019-02-09T19:56:15.823Z,99.90
2019-02-09T19:58:49.823Z,99.90
2019-02-09T20:01:22.665Z,99.90
2019-02-09T20:03:55.391Z,99.90
2019-02-09T20:06:27.703Z,99.90
2019-02-09T20:09:00.194Z,99.90
2019-02-09T20:11:31.769Z,99.90
2019-02-09T20:14:03.425Z,99.90
2019-02-09T20:16:35.393Z,99.90
2019-02-09T20:19:07.591Z,99.90
2019-02-09T20:21:40.023Z,99.90
2019-02-09T20:24:12.285Z,99.90
2019-02-09T20:26:43.844Z,99.90
2019-02-09T20:29:15.282Z,99.90
2019-02-09T20:31:46.631Z,99.90
2019-02-09T20:34:17.919Z,99.90
2019-02-09T20:36:49.724Z,99.90
2019-02-09T20:39:21.281Z,99.90
2019-02-09T20:41:53.346Z,99.90
2019-02-09T20:44:24.587Z,99.90
2019-02-09T20:46:55.253Z,99.90
2019-02-09T20:49:27.467Z,99.90
2019-02-09T20:51:58.193Z,99.90
2019-02-09T20:54:28.951Z,99.90
2019-02-09T20:56:59.916Z,99.90
2019-02-09T20:59:31.723Z,99.90
2019-02-09T21:02:02.797Z,99.90
2019-02-09T21:04:35.334Z,99.90
2019-02-09T21:07:07.740Z,99.90
2019-02-09T21:09:38.430Z,99.90
2019-02-09T21:12:14.504Z,99.90
2019-02-09T21:14:45.391Z,99.90
2019-02-09T21:17:16.221Z,99.90
2019-02-09T21:19:47.082Z,99.90
2019-02-09T21:22:18.205Z,99.90
2019-02-09T21:24:49.050Z,99.90
2019-02-09T21:27:21.000Z,99.90
2019-02-09T21:29:51.670Z,99.90
2019-02-09T21:32:22.727Z,99.90
2019-02-09T21:34:53.493Z,99.90
2019-02-09T21:37:24.632Z,99.90
2019-02-09T21:39:55.294Z,99.90
2019-02-09T21:42:25.878Z,99.90
2019-02-09T21:44:56.449Z,99.90
2019-02-09T21:47:27.393Z,99.90
2019-02-09T21:49:58.472Z,99.90
2019-02-09T21:52:29.642Z,99.90
2019-02-09T21:55:00.588Z,99.90
2019-02-09T21:57:32.634Z,99.90
2019-02-09T22:00:03.591Z,99.90
2019-02-09T22:02:42.164Z,99.90
2019-02-09T22:05:08.423Z,99.90
2019-02-09T22:07:39.335Z,99.90
2019-02-09T22:10:11.826Z,99.90
2019-02-09T22:12:42.766Z,99.90
2019-02-09T22:15:13.489Z,99.90
2019-02-09T22:17:44.613Z,99.90
2019-02-09T22:20:16.964Z,99.90
2019-02-09T22:23:08.099Z,99.90
2019-02-09T22:25:38.802Z,99.90
2019-02-09T22:28:09.222Z,99.90
2019-02-09T22:30:44.498Z,99.90
2019-02-09T22:33:24.048Z,99.90
2019-02-09T22:35:46.987Z,99.90
2019-02-09T22:38:18.418Z,99.90
2019-02-09T22:40:48.880Z,99.90
2019-02-09T22:43:21.248Z,99.90
2019-02-09T22:46:21.424Z,99.90
2019-02-09T22:48:51.941Z,99.90
2019-02-09T22:51:23.452Z,99.90
2019-02-09T22:53:53.841Z,99.90
2019-02-09T22:56:24.086Z,99.90
2019-02-09T22:58:54.736Z,99.90
2019-02-09T23:01:32.565Z,99.90
2019-02-09T23:04:52.682Z,99.90
2019-02-09T23:07:34.723Z,99.90
2019-02-09T23:10:09.332Z,99.90
2019-02-09T23:12:39.676Z,99.90
2019-02-09T23:15:11.084Z,99.90
2019-02-09T23:17:41.392Z,99.90
2019-02-09T23:20:12.366Z,99.90
2019-02-09T23:22:42.590Z,99.90
2019-02-09T23:25:13.012Z,99.90
2019-02-09T23:27:43.588Z,99.90
2019-02-09T23:30:14.090Z,99.90
2019-02-09T23:32:44.429Z,99.90
2019-02-09T23:35:14.899Z,99.90
2019-02-09T23:37:45.080Z,99.90
2019-02-09T23:40:16.896Z,99.90
2019-02-09T23:42:47.378Z,99.90
2019-02-09T23:45:18.338Z,99.90
2019-02-09T23:47:48.821Z,99.90
2019-02-09T23:50:20.211Z,99.90
2019-02-09T23:52:50.575Z,99.90
2019-02-09T23:55:20.792Z,99.90
2019-02-09T23:57:51.136Z,99.90
